Indianapolis, Indiana
Current Conditions -  °F | °C
As of 2:54 PM on Wednesday 17 Dec 2014 (Local Time) from KIND Reporting Station
Overcast Overcast  
Wind Chill: -9°   Ceiling: 1400
Heat Index: -4°   Visibility: 8mi
Dew Point: -7°   Wind: 9mph
Humidity: 81%   Direction: 310°NW
Pressure: 30.22"   Gusts: NA
Location:  39.77°N, 86.15°W
Report Text: KIND 171954Z 31008KT 8SM OVC014 M04/M07 A3022 RMK AO2 SLP242 T10391067
Loading
Personal Weather Stations






























Interactive Weather Map New forecast layout! Learn more

10-Day Weather Forecast

Advertisements
Track Severe Weather on mobile